sensor_id;sensor_type;location;lat;lon;timestamp;pressure;altitude;pressure_sealevel;temperature;humidity
43161;BME280;40968;52.342;5.528;2024-01-27T00:00:33;103178.53;;;2.01;83.73
43161;BME280;40968;52.342;5.528;2024-01-27T00:02:59;103244.66;;;2.34;83.80
43161;BME280;40968;52.342;5.528;2024-01-27T00:05:27;103402.50;;;3.32;84.03
43161;BME280;40968;52.342;5.528;2024-01-27T00:07:54;103170.59;;;1.93;83.89
43161;BME280;40968;52.342;5.528;2024-01-27T00:10:20;103343.41;;;2.94;83.88
43161;BME280;40968;52.342;5.528;2024-01-27T00:12:47;103130.97;;;1.73;84.04
43161;BME280;40968;52.342;5.528;2024-01-27T00:15:13;103322.28;;;2.63;84.09
43161;BME280;40968;52.342;5.528;2024-01-27T00:17:40;103419.31;;;3.26;84.22
43161;BME280;40968;52.342;5.528;2024-01-27T00:20:07;103358.41;;;2.91;84.17
43161;BME280;40968;52.342;5.528;2024-01-27T00:22:35;103348.69;;;2.88;84.44
43161;BME280;40968;52.342;5.528;2024-01-27T00:25:02;103313.47;;;2.66;84.61
43161;BME280;40968;52.342;5.528;2024-01-27T00:27:29;103352.22;;;2.93;84.72
43161;BME280;40968;52.342;5.528;2024-01-27T00:29:55;103410.47;;;3.24;84.89
43161;BME280;40968;52.342;5.528;2024-01-27T00:32:22;103412.22;;;3.22;84.89
43161;BME280;40968;52.342;5.528;2024-01-27T00:34:48;103404.28;;;3.22;84.92
43161;BME280;40968;52.342;5.528;2024-01-27T00:37:15;103352.25;;;2.87;84.70
43161;BME280;40968;52.342;5.528;2024-01-27T00:39:43;103305.53;;;2.51;85.07
43161;BME280;40968;52.342;5.528;2024-01-27T00:42:10;103402.53;;;3.17;85.29
43161;BME280;40968;52.342;5.528;2024-01-27T00:44:37;103406.06;;;3.22;85.24
43161;BME280;40968;52.342;5.528;2024-01-27T00:47:04;103387.53;;;3.12;85.32
43161;BME280;40968;52.342;5.528;2024-01-27T00:49:30;103259.66;;;2.35;85.00
43161;BME280;40968;52.342;5.528;2024-01-27T00:51:57;103405.19;;;3.18;85.48
43161;BME280;40968;52.342;5.528;2024-01-27T00:54:23;103354.91;;;2.87;85.31
43161;BME280;40968;52.342;5.528;2024-01-27T00:56:52;103414.03;;;3.14;85.46
43161;BME280;40968;52.342;5.528;2024-01-27T00:59:18;103335.50;;;2.73;85.14
43161;BME280;40968;52.342;5.528;2024-01-27T01:01:45;103412.28;;;3.10;85.52
43161;BME280;40968;52.342;5.528;2024-01-27T01:04:11;103405.19;;;3.09;85.70
43161;BME280;40968;52.342;5.528;2024-01-27T01:06:38;103372.53;;;2.88;85.65
43161;BME280;40968;52.342;5.528;2024-01-27T01:09:05;103348.72;;;2.70;85.77
43161;BME280;40968;52.342;5.528;2024-01-27T01:11:32;103311.69;;;2.42;85.94
43161;BME280;40968;52.342;5.528;2024-01-27T01:14:00;103421.13;;;3.04;85.82
43161;BME280;40968;52.342;5.528;2024-01-27T01:16:26;103414.06;;;3.03;85.91
43161;BME280;40968;52.342;5.528;2024-01-27T01:18:53;103428.16;;;3.04;85.91
43161;BME280;40968;52.342;5.528;2024-01-27T01:21:19;103186.47;;;1.62;85.77
43161;BME280;40968;52.342;5.528;2024-01-27T01:23:46;103359.34;;;2.63;85.66
43161;BME280;40968;52.342;5.528;2024-01-27T01:26:13;103215.56;;;1.79;85.88
43161;BME280;40968;52.342;5.528;2024-01-27T01:28:39;103356.69;;;2.59;86.03
43161;BME280;40968;52.342;5.528;2024-01-27T01:31:07;103288.78;;;2.18;85.92
43161;BME280;40968;52.342;5.528;2024-01-27T01:33:34;103272.00;;;2.08;85.93
43161;BME280;40968;52.342;5.528;2024-01-27T01:36:00;103415.81;;;2.93;86.18
43161;BME280;40968;52.342;5.528;2024-01-27T01:38:27;103414.94;;;2.91;86.28
43161;BME280;40968;52.342;5.528;2024-01-27T01:40:53;103147.69;;;1.37;85.88
43161;BME280;40968;52.342;5.528;2024-01-27T01:43:20;103321.41;;;2.32;86.21
43161;BME280;40968;52.342;5.528;2024-01-27T01:45:46;103329.34;;;2.37;86.18
43161;BME280;40968;52.342;5.528;2024-01-27T01:48:17;103414.94;;;2.85;86.53
43161;BME280;40968;52.342;5.528;2024-01-27T01:50:43;103257.88;;;1.82;86.25
43161;BME280;40968;52.342;5.528;2024-01-27T01:53:10;103371.72;;;2.49;86.45
43161;BME280;40968;52.342;5.528;2024-01-27T01:55:38;103366.41;;;2.43;86.68
43161;BME280;40968;52.342;5.528;2024-01-27T01:58:05;103196.16;;;1.40;86.46
43161;BME280;40968;52.342;5.528;2024-01-27T02:00:32;103437.91;;;2.77;86.66
43161;BME280;40968;52.342;5.528;2024-01-27T02:02:59;103129.97;;;0.95;86.75
43161;BME280;40968;52.342;5.528;2024-01-27T02:05:27;103399.91;;;2.41;86.69
43161;BME280;40968;52.342;5.528;2024-01-27T02:07:53;103436.16;;;2.71;86.75
43161;BME280;40968;52.342;5.528;2024-01-27T02:10:21;103237.59;;;1.52;86.64
43161;BME280;40968;52.342;5.528;2024-01-27T02:12:48;103223.44;;;1.44;86.67
43161;BME280;40968;52.342;5.528;2024-01-27T02:15:14;103264.94;;;1.74;86.75
43161;BME280;40968;52.342;5.528;2024-01-27T02:17:41;103293.16;;;1.91;86.77
43161;BME280;40968;52.342;5.528;2024-01-27T02:20:07;103414.06;;;2.60;86.83
43161;BME280;40968;52.342;5.528;2024-01-27T02:22:36;103421.13;;;2.62;87.04
43161;BME280;40968;52.342;5.528;2024-01-27T02:25:04;103422.88;;;2.60;86.63
43161;BME280;40968;52.342;5.528;2024-01-27T02:27:31;103430.84;;;2.57;86.51
43161;BME280;40968;52.342;5.528;2024-01-27T02:29:58;103364.59;;;2.19;86.52
43161;BME280;40968;52.342;5.528;2024-01-27T02:32:24;103425.53;;;2.53;86.37
43161;BME280;40968;52.342;5.528;2024-01-27T02:34:51;103335.47;;;1.92;86.39
43161;BME280;40968;52.342;5.528;2024-01-27T02:37:18;103001.22;;;-0.08;86.40
43161;BME280;40968;52.342;5.528;2024-01-27T02:39:44;103318.69;;;1.78;86.50
43161;BME280;40968;52.342;5.528;2024-01-27T02:42:12;103434.34;;;2.42;86.71
43161;BME280;40968;52.342;5.528;2024-01-27T02:44:39;103424.66;;;2.40;86.76
43161;BME280;40968;52.342;5.528;2024-01-27T02:47:06;103438.75;;;2.39;86.74
43161;BME280;40968;52.342;5.528;2024-01-27T02:49:32;103430.81;;;2.39;86.60
43161;BME280;40968;52.342;5.528;2024-01-27T02:51:59;103427.28;;;2.37;87.03
43161;BME280;40968;52.342;5.528;2024-01-27T02:54:25;103276.34;;;1.47;86.93
43161;BME280;40968;52.342;5.528;2024-01-27T02:56:52;103370.78;;;2.01;87.19
43161;BME280;40968;52.342;5.528;2024-01-27T02:59:20;103433.44;;;2.32;87.53
43161;BME280;40968;52.342;5.528;2024-01-27T03:01:47;103377.81;;;1.98;87.66
43161;BME280;40968;52.342;5.528;2024-01-27T03:04:13;103149.25;;;0.66;87.72
43161;BME280;40968;52.342;5.528;2024-01-27T03:06:40;103439.63;;;2.30;88.12
43161;BME280;40968;52.342;5.528;2024-01-27T03:09:06;103323.94;;;1.59;88.15
43161;BME280;40968;52.342;5.528;2024-01-27T03:11:33;103383.97;;;1.97;88.42
43161;BME280;40968;52.342;5.528;2024-01-27T03:13:59;103166.84;;;0.68;88.27
43161;BME280;40968;52.342;5.528;2024-01-27T03:16:27;103261.28;;;1.26;88.60
43161;BME280;40968;52.342;5.528;2024-01-27T03:18:54;103316.91;;;1.64;88.79
43161;BME280;40968;52.342;5.528;2024-01-27T03:21:21;103423.75;;;2.27;88.72
43161;BME280;40968;52.342;5.528;2024-01-27T03:23:47;103426.38;;;2.27;89.00
43161;BME280;40968;52.342;5.528;2024-01-27T03:26:14;103366.25;;;1.70;88.92
43161;BME280;40968;52.342;5.528;2024-01-27T03:28:41;103182.72;;;0.77;88.75
43161;BME280;40968;52.342;5.528;2024-01-27T03:31:07;103426.38;;;2.21;88.98
43161;BME280;40968;52.342;5.528;2024-01-27T03:33:35;103361.91;;;1.83;89.39
43161;BME280;40968;52.342;5.528;2024-01-27T03:36:02;103436.97;;;2.19;89.33
43161;BME280;40968;52.342;5.528;2024-01-27T03:38:28;103195.94;;;0.77;89.35
43161;BME280;40968;52.342;5.528;2024-01-27T03:40:55;103439.59;;;2.18;89.64
43161;BME280;40968;52.342;5.528;2024-01-27T03:43:22;103201.22;;;0.78;89.83
43161;BME280;40968;52.342;5.528;2024-01-27T03:45:48;103416.63;;;2.04;89.81
43161;BME280;40968;52.342;5.528;2024-01-27T03:48:15;103062.75;;;-0.03;89.87
43161;BME280;40968;52.342;5.528;2024-01-27T03:50:43;103444.00;;;2.15;89.95
43161;BME280;40968;52.342;5.528;2024-01-27T03:53:10;103383.94;;;1.79;90.11
43161;BME280;40968;52.342;5.528;2024-01-27T03:55:35;103440.47;;;2.15;89.92
43161;BME280;40968;52.342;5.528;2024-01-27T03:58:02;103310.63;;;1.30;89.80
43161;BME280;40968;52.342;5.528;2024-01-27T04:00:29;103409.53;;;1.88;90.18
43161;BME280;40968;52.342;5.528;2024-01-27T04:02:58;103443.97;;;2.08;90.10
43161;BME280;40968;52.342;5.528;2024-01-27T04:05:25;103375.06;;;1.68;90.38
43161;BME280;40968;52.342;5.528;2024-01-27T04:07:53;103424.53;;;1.93;90.30
43161;BME280;40968;52.342;5.528;2024-01-27T04:10:20;103392.69;;;1.65;90.63
43161;BME280;40968;52.342;5.528;2024-01-27T04:12:47;103304.31;;;0.98;90.35
43161;BME280;40968;52.342;5.528;2024-01-27T04:15:13;103434.19;;;1.88;90.58
43161;BME280;40968;52.342;5.528;2024-01-27T04:17:40;103241.69;;;0.74;90.60
43161;BME280;40968;52.342;5.528;2024-01-27T04:20:08;103203.72;;;0.54;90.85
43161;BME280;40968;52.342;5.528;2024-01-27T04:22:35;103184.28;;;0.36;90.98
43161;BME280;40968;52.342;5.528;2024-01-27T04:25:04;103399.72;;;1.60;90.95
43161;BME280;40968;52.342;5.528;2024-01-27T04:27:32;103267.25;;;0.86;91.02
43161;BME280;40968;52.342;5.528;2024-01-27T04:29:58;103352.91;;;1.35;90.83
43161;BME280;40968;52.342;5.528;2024-01-27T04:32:25;103339.56;;;1.07;90.91
43161;BME280;40968;52.342;5.528;2024-01-27T04:34:51;103424.38;;;1.62;91.10
43161;BME280;40968;52.342;5.528;2024-01-27T04:37:18;103476.56;;;1.94;91.08
43161;BME280;40968;52.342;5.528;2024-01-27T04:39:45;103475.66;;;1.92;91.10
43161;BME280;40968;52.342;5.528;2024-01-27T04:42:13;103112.75;;;-0.12;90.93
43161;BME280;40968;52.342;5.528;2024-01-27T04:44:40;103395.25;;;1.50;91.37
43161;BME280;40968;52.342;5.528;2024-01-27T04:47:06;103246.91;;;0.63;91.01
43161;BME280;40968;52.342;5.528;2024-01-27T04:49:33;103412.91;;;1.53;91.42
43161;BME280;40968;52.342;5.528;2024-01-27T04:52:00;103400.56;;;1.47;91.54
43161;BME280;40968;52.342;5.528;2024-01-27T04:54:27;103260.16;;;0.73;91.13
43161;BME280;40968;52.342;5.528;2024-01-27T04:56:53;103450.94;;;1.84;91.57
43161;BME280;40968;52.342;5.528;2024-01-27T04:59:21;103214.22;;;0.40;91.52
43161;BME280;40968;52.342;5.528;2024-01-27T05:01:48;103156.81;;;0.02;91.26
43161;BME280;40968;52.342;5.528;2024-01-27T05:04:15;103451.78;;;1.77;91.65
43161;BME280;40968;52.342;5.528;2024-01-27T05:06:43;103457.97;;;1.79;91.83
43161;BME280;40968;52.342;5.528;2024-01-27T05:09:10;103385.53;;;1.40;91.88
43161;BME280;40968;52.342;5.528;2024-01-27T05:11:37;103186.81;;;0.22;91.84
43161;BME280;40968;52.342;5.528;2024-01-27T05:14:04;103326.31;;;1.01;92.21
43161;BME280;40968;52.342;5.528;2024-01-27T05:16:32;103093.31;;;-0.32;91.91
43161;BME280;40968;52.342;5.528;2024-01-27T05:18:59;103127.72;;;-0.14;92.12
43161;BME280;40968;52.342;5.528;2024-01-27T05:21:26;103383.75;;;1.36;92.40
43161;BME280;40968;52.342;5.528;2024-01-27T05:23:52;103456.19;;;1.72;92.54
43161;BME280;40968;52.342;5.528;2024-01-27T05:26:20;102993.63;;;-0.92;92.46
43161;BME280;40968;52.342;5.528;2024-01-27T05:28:46;103286.59;;;0.82;92.55
43161;BME280;40968;52.342;5.528;2024-01-27T05:31:13;103420.88;;;1.57;92.42
43161;BME280;40968;52.342;5.528;2024-01-27T05:33:42;103330.78;;;1.08;92.67
43161;BME280;40968;52.342;5.528;2024-01-27T05:36:09;103315.75;;;1.01;92.68
43161;BME280;40968;52.342;5.528;2024-01-27T05:38:35;103168.28;;;0.10;92.79
43161;BME280;40968;52.342;5.528;2024-01-27T05:41:02;103427.06;;;1.64;92.83
43161;BME280;40968;52.342;5.528;2024-01-27T05:43:29;103387.25;;;1.35;93.06
43161;BME280;40968;52.342;5.528;2024-01-27T05:45:55;103178.00;;;0.17;92.87
43161;BME280;40968;52.342;5.528;2024-01-27T05:48:22;103350.13;;;1.07;93.04
43161;BME280;40968;52.342;5.528;2024-01-27T05:50:56;103438.50;;;1.61;93.13
43161;BME280;40968;52.342;5.528;2024-01-27T05:53:23;103434.97;;;1.59;93.26
43161;BME280;40968;52.342;5.528;2024-01-27T05:55:50;103438.50;;;1.60;93.35
43161;BME280;40968;52.342;5.528;2024-01-27T05:58:17;103443.75;;;1.58;93.41
43161;BME280;40968;52.342;5.528;2024-01-27T06:00:46;103445.53;;;1.59;93.36
43161;BME280;40968;52.342;5.528;2024-01-27T06:03:13;103420.78;;;1.48;93.39
43161;BME280;40968;52.342;5.528;2024-01-27T06:05:40;103192.03;;;0.11;93.29
43161;BME280;40968;52.342;5.528;2024-01-27T06:08:08;103183.19;;;0.02;93.25
43161;BME280;40968;52.342;5.528;2024-01-27T06:10:35;103397.78;;;1.25;93.32
43161;BME280;40968;52.342;5.528;2024-01-27T06:13:02;103450.78;;;1.53;93.25
43161;BME280;40968;52.342;5.528;2024-01-27T06:15:29;103453.44;;;1.53;93.30
43161;BME280;40968;52.342;5.528;2024-01-27T06:17:56;103357.13;;;1.02;93.52
43161;BME280;40968;52.342;5.528;2024-01-27T06:20:22;103388.06;;;1.23;93.63
43161;BME280;40968;52.342;5.528;2024-01-27T06:22:49;103260.00;;;0.46;93.57
43161;BME280;40968;52.342;5.528;2024-01-27T06:25:20;103445.50;;;1.50;93.79
43161;BME280;40968;52.342;5.528;2024-01-27T06:27:47;103396.84;;;1.15;93.67
43161;BME280;40968;52.342;5.528;2024-01-27T06:30:14;103398.59;;;1.09;93.76
43161;BME280;40968;52.342;5.528;2024-01-27T06:32:41;103127.50;;;-0.39;93.69
43161;BME280;40968;52.342;5.528;2024-01-27T06:35:07;103447.22;;;1.48;93.69
43161;BME280;40968;52.342;5.528;2024-01-27T06:37:34;103324.41;;;0.75;93.83
43161;BME280;40968;52.342;5.528;2024-01-27T06:40:01;103454.28;;;1.46;94.03
43161;BME280;40968;52.342;5.528;2024-01-27T06:42:29;103243.97;;;0.20;93.63
43161;BME280;40968;52.342;5.528;2024-01-27T06:44:56;103203.38;;;-0.01;93.52
43161;BME280;40968;52.342;5.528;2024-01-27T06:47:23;103183.09;;;-0.09;93.83
43161;BME280;40968;52.342;5.528;2024-01-27T06:49:50;103388.88;;;1.11;93.95
43161;BME280;40968;52.342;5.528;2024-01-27T06:52:16;103445.44;;;1.44;94.03
43161;BME280;40968;52.342;5.528;2024-01-27T06:54:43;103094.81;;;-0.64;93.76
43161;BME280;40968;52.342;5.528;2024-01-27T06:57:18;103153.94;;;-0.26;94.01
43161;BME280;40968;52.342;5.528;2024-01-27T06:59:47;103378.25;;;1.02;93.97
43161;BME280;40968;52.342;5.528;2024-01-27T07:02:18;103395.94;;;1.09;94.12
43161;BME280;40968;52.342;5.528;2024-01-27T07:04:44;103455.09;;;1.37;94.18
43161;BME280;40968;52.342;5.528;2024-01-27T07:07:11;103415.25;;;1.02;93.96
43161;BME280;40968;52.342;5.528;2024-01-27T07:09:37;103388.78;;;0.97;93.97
43161;BME280;40968;52.342;5.528;2024-01-27T07:12:05;103224.44;;;-0.04;94.12
43161;BME280;40968;52.342;5.528;2024-01-27T07:14:30;103408.22;;;1.04;94.18
43161;BME280;40968;52.342;5.528;2024-01-27T07:16:58;103431.16;;;1.14;94.07
43161;BME280;40968;52.342;5.528;2024-01-27T07:19:25;103389.63;;;0.90;94.33
43161;BME280;40968;52.342;5.528;2024-01-27T07:21:51;103421.50;;;1.13;94.04
43161;BME280;40968;52.342;5.528;2024-01-27T07:24:18;103479.75;;;1.35;94.01
43161;BME280;40968;52.342;5.528;2024-01-27T07:26:45;103423.13;;;0.95;94.25
43161;BME280;40968;52.342;5.528;2024-01-27T07:29:11;103123.66;;;-0.78;93.88
43161;BME280;40968;52.342;5.528;2024-01-27T07:31:38;103416.84;;;0.78;94.13
43161;BME280;40968;52.342;5.528;2024-01-27T07:34:06;103161.69;;;-0.51;93.74
43161;BME280;40968;52.342;5.528;2024-01-27T07:36:33;103381.47;;;0.57;94.07
43161;BME280;40968;52.342;5.528;2024-01-27T07:39:00;103040.66;;;-1.29;93.60
43161;BME280;40968;52.342;5.528;2024-01-27T07:41:26;103438.16;;;1.03;93.87
43161;BME280;40968;52.342;5.528;2024-01-27T07:43:54;103477.91;;;1.24;93.97
43161;BME280;40968;52.342;5.528;2024-01-27T07:46:21;103227.75;;;-0.26;93.58
43161;BME280;40968;52.342;5.528;2024-01-27T07:48:48;103425.72;;;0.89;94.12
43161;BME280;40968;52.342;5.528;2024-01-27T07:51:16;103127.06;;;-0.87;93.89
43161;BME280;40968;52.342;5.528;2024-01-27T07:53:42;103415.13;;;0.83;93.97
43161;BME280;40968;52.342;5.528;2024-01-27T07:56:09;103424.81;;;0.87;94.09
43161;BME280;40968;52.342;5.528;2024-01-27T07:58:35;103391.06;;;0.47;94.17
43161;BME280;40968;52.342;5.528;2024-01-27T08:01:02;103465.41;;;1.00;94.20
43161;BME280;40968;52.342;5.528;2024-01-27T08:03:30;103485.84;;;1.24;94.55
43161;BME280;40968;52.342;5.528;2024-01-27T08:05:56;103449.53;;;0.97;94.80
43161;BME280;40968;52.342;5.528;2024-01-27T08:08:25;103492.91;;;1.25;94.73
43161;BME280;40968;52.342;5.528;2024-01-27T08:10:51;103507.94;;;1.32;95.09
43161;BME280;40968;52.342;5.528;2024-01-27T08:13:18;103499.09;;;1.27;95.22
43161;BME280;40968;52.342;5.528;2024-01-27T08:15:44;103261.34;;;-0.05;95.22
43161;BME280;40968;52.342;5.528;2024-01-27T08:18:11;103507.13;;;1.43;95.60
43161;BME280;40968;52.342;5.528;2024-01-27T08:20:38;103395.69;;;0.75;95.50
43161;BME280;40968;52.342;5.528;2024-01-27T08:23:04;103231.41;;;-0.12;95.53
43161;BME280;40968;52.342;5.528;2024-01-27T08:25:32;103424.09;;;1.05;95.75
43161;BME280;40968;52.342;5.528;2024-01-27T08:27:59;103222.69;;;-0.05;95.50
43161;BME280;40968;52.342;5.528;2024-01-27T08:30:25;103440.97;;;1.26;95.92
43161;BME280;40968;52.342;5.528;2024-01-27T08:32:52;103259.75;;;0.17;95.92
43161;BME280;40968;52.342;5.528;2024-01-27T08:35:18;103385.16;;;0.81;95.85
43161;BME280;40968;52.342;5.528;2024-01-27T08:37:45;103169.75;;;-0.29;96.08
43161;BME280;40968;52.342;5.528;2024-01-27T08:40:12;103456.00;;;1.41;96.25
43161;BME280;40968;52.342;5.528;2024-01-27T08:42:40;103532.91;;;1.81;96.42
43161;BME280;40968;52.342;5.528;2024-01-27T08:45:07;103471.97;;;1.56;96.24
43161;BME280;40968;52.342;5.528;2024-01-27T08:47:34;103412.75;;;1.25;96.09
43161;BME280;40968;52.342;5.528;2024-01-27T08:50:01;103521.53;;;1.93;96.34
43161;BME280;40968;52.342;5.528;2024-01-27T08:52:27;103403.06;;;1.28;96.22
43161;BME280;40968;52.342;5.528;2024-01-27T08:54:54;103518.88;;;1.97;96.21
43161;BME280;40968;52.342;5.528;2024-01-27T08:57:20;103523.34;;;2.05;96.38
43161;BME280;40968;52.342;5.528;2024-01-27T08:59:48;103473.84;;;1.74;96.38
43161;BME280;40968;52.342;5.528;2024-01-27T09:02:15;103215.03;;;0.29;96.00
43161;BME280;40968;52.342;5.528;2024-01-27T09:04:42;103485.34;;;1.92;96.30
43161;BME280;40968;52.342;5.528;2024-01-27T09:07:08;103338.69;;;1.06;96.18
43161;BME280;40968;52.342;5.528;2024-01-27T09:09:35;103276.00;;;0.74;96.00
43161;BME280;40968;52.342;5.528;2024-01-27T09:12:03;103523.41;;;2.20;95.94
43161;BME280;40968;52.342;5.528;2024-01-27T09:14:30;103313.09;;;1.01;96.16
43161;BME280;40968;52.342;5.528;2024-01-27T09:17:00;103518.13;;;2.23;96.02
43161;BME280;40968;52.342;5.528;2024-01-27T09:19:27;103518.97;;;2.25;96.10
43161;BME280;40968;52.342;5.528;2024-01-27T09:21:53;103442.09;;;1.79;96.20
43161;BME280;40968;52.342;5.528;2024-01-27T09:24:20;103527.84;;;2.32;96.31
43161;BME280;40968;52.342;5.528;2024-01-27T09:26:47;103522.56;;;2.37;96.39
43161;BME280;40968;52.342;5.528;2024-01-27T09:29:13;103445.69;;;1.90;96.46
43161;BME280;40968;52.342;5.528;2024-01-27T09:31:40;103528.75;;;2.45;96.45
43161;BME280;40968;52.342;5.528;2024-01-27T09:34:08;103547.31;;;2.49;96.45
43161;BME280;40968;52.342;5.528;2024-01-27T09:36:34;103247.00;;;0.82;96.10
43161;BME280;40968;52.342;5.528;2024-01-27T09:39:01;103341.50;;;1.42;96.31
43161;BME280;40968;52.342;5.528;2024-01-27T09:41:30;103244.38;;;0.85;95.92
43161;BME280;40968;52.342;5.528;2024-01-27T09:43:59;103275.31;;;1.06;96.23
43161;BME280;40968;52.342;5.528;2024-01-27T09:46:27;103480.19;;;2.27;95.96
43161;BME280;40968;52.342;5.528;2024-01-27T09:48:54;103507.56;;;2.45;96.10
43161;BME280;40968;52.342;5.528;2024-01-27T09:51:22;103498.78;;;2.49;95.84
43161;BME280;40968;52.342;5.528;2024-01-27T09:53:48;103569.47;;;2.90;96.03
43161;BME280;40968;52.342;5.528;2024-01-27T09:56:17;103574.78;;;2.96;95.61
43161;BME280;40968;52.342;5.528;2024-01-27T09:58:45;103580.97;;;3.02;95.51
43161;BME280;40968;52.342;5.528;2024-01-27T10:01:12;103426.34;;;2.16;95.23
43161;BME280;40968;52.342;5.528;2024-01-27T10:03:41;103576.56;;;3.13;95.19
43161;BME280;40968;52.342;5.528;2024-01-27T10:06:09;103580.09;;;3.18;94.64
43161;BME280;40968;52.342;5.528;2024-01-27T10:08:37;103516.50;;;2.86;94.31
43161;BME280;40968;52.342;5.528;2024-01-27T10:11:07;103573.03;;;3.29;94.47
43161;BME280;40968;52.342;5.528;2024-01-27T10:13:34;103405.22;;;2.28;94.22
43161;BME280;40968;52.342;5.528;2024-01-27T10:16:01;103589.84;;;3.41;94.17
43161;BME280;40968;52.342;5.528;2024-01-27T10:18:28;103582.78;;;3.47;93.83
43161;BME280;40968;52.342;5.528;2024-01-27T10:20:55;103456.47;;;2.83;93.58
43161;BME280;40968;52.342;5.528;2024-01-27T10:23:22;103375.22;;;2.42;93.17
43161;BME280;40968;52.342;5.528;2024-01-27T10:25:50;103272.00;;;1.86;92.65
43161;BME280;40968;52.342;5.528;2024-01-27T10:28:17;103420.25;;;2.76;92.59
43161;BME280;40968;52.342;5.528;2024-01-27T10:30:44;103620.75;;;3.79;92.54
43161;BME280;40968;52.342;5.528;2024-01-27T10:33:13;103344.34;;;2.41;92.12
43161;BME280;40968;52.342;5.528;2024-01-27T10:35:40;103456.41;;;3.08;91.68
43161;BME280;40968;52.342;5.528;2024-01-27T10:38:07;103493.53;;;3.34;91.44
43161;BME280;40968;52.342;5.528;2024-01-27T10:40:35;103362.00;;;2.59;91.15
43161;BME280;40968;52.342;5.528;2024-01-27T10:43:04;103359.34;;;2.63;90.90
43161;BME280;40968;52.342;5.528;2024-01-27T10:45:36;103384.03;;;2.90;90.76
43161;BME280;40968;52.342;5.528;2024-01-27T10:48:04;103615.28;;;4.35;90.45
43161;BME280;40968;52.342;5.528;2024-01-27T10:50:35;103568.47;;;4.20;89.59
43161;BME280;40968;52.342;5.528;2024-01-27T10:53:03;103488.06;;;3.84;89.32
43161;BME280;40968;52.342;5.528;2024-01-27T10:55:33;103609.88;;;4.65;88.87
43161;BME280;40968;52.342;5.528;2024-01-27T10:58:01;103540.03;;;4.39;87.94
43161;BME280;40968;52.342;5.528;2024-01-27T11:00:30;103596.47;;;4.82;86.98
43161;BME280;40968;52.342;5.528;2024-01-27T11:02:58;103496.69;;;4.37;86.75
43161;BME280;40968;52.342;5.528;2024-01-27T11:05:27;103561.00;;;4.90;86.18
43161;BME280;40968;52.342;5.528;2024-01-27T11:07:55;103299.00;;;3.54;85.99
43161;BME280;40968;52.342;5.528;2024-01-27T11:10:22;103575.81;;;5.23;85.73
43161;BME280;40968;52.342;5.528;2024-01-27T11:12:49;103508.66;;;4.96;85.54
43161;BME280;40968;52.342;5.528;2024-01-27T11:15:17;103568.56;;;5.44;84.55
43161;BME280;40968;52.342;5.528;2024-01-27T11:17:45;103572.88;;;5.56;83.83
43161;BME280;40968;52.342;5.528;2024-01-27T11:20:12;103437.09;;;4.79;83.42
43161;BME280;40968;52.342;5.528;2024-01-27T11:22:41;103453.03;;;4.79;81.67
43161;BME280;40968;52.342;5.528;2024-01-27T11:25:14;103573.56;;;5.78;81.21
43161;BME280;40968;52.342;5.528;2024-01-27T11:27:42;103443.84;;;5.14;80.91
43161;BME280;40968;52.342;5.528;2024-01-27T11:30:25;103472.91;;;5.35;80.35
43161;BME280;40968;52.342;5.528;2024-01-27T11:32:54;103326.56;;;4.58;79.90
43161;BME280;40968;52.342;5.528;2024-01-27T11:35:21;103576.78;;;6.11;79.97
43161;BME280;40968;52.342;5.528;2024-01-27T11:37:48;103376.72;;;4.94;79.43
43161;BME280;40968;52.342;5.528;2024-01-27T11:40:14;103386.22;;;5.17;79.11
43161;BME280;40968;52.342;5.528;2024-01-27T11:42:41;103519.13;;;6.08;78.85
43161;BME280;40968;52.342;5.528;2024-01-27T11:45:08;103488.13;;;6.03;78.37
43161;BME280;40968;52.342;5.528;2024-01-27T11:47:34;103559.25;;;6.63;77.89
43161;BME280;40968;52.342;5.528;2024-01-27T11:50:03;103553.81;;;6.71;76.97
43161;BME280;40968;52.342;5.528;2024-01-27T11:52:30;103525.53;;;6.60;75.98
43161;BME280;40968;52.342;5.528;2024-01-27T11:54:57;103463.91;;;6.21;74.99
43161;BME280;40968;52.342;5.528;2024-01-27T11:57:24;103556.22;;;6.86;74.49
43161;BME280;40968;52.342;5.528;2024-01-27T11:59:51;103557.03;;;6.91;73.56
43161;BME280;40968;52.342;5.528;2024-01-27T12:02:18;103560.53;;;6.95;73.22
43161;BME280;40968;52.342;5.528;2024-01-27T12:04:45;103482.16;;;6.49;72.94
43161;BME280;40968;52.342;5.528;2024-01-27T12:07:14;103472.41;;;6.46;72.53
43161;BME280;40968;52.342;5.528;2024-01-27T12:09:44;103555.88;;;7.08;72.35
43161;BME280;40968;52.342;5.528;2024-01-27T12:12:12;103523.09;;;7.03;72.99
43161;BME280;40968;52.342;5.528;2024-01-27T12:14:40;103550.25;;;7.26;72.53
43161;BME280;40968;52.342;5.528;2024-01-27T12:17:08;103443.59;;;6.72;72.18
43161;BME280;40968;52.342;5.528;2024-01-27T12:19:36;103430.41;;;6.66;72.02
43161;BME280;40968;52.342;5.528;2024-01-27T12:22:03;103496.25;;;7.12;71.62
43161;BME280;40968;52.342;5.528;2024-01-27T12:24:31;103391.34;;;6.61;71.18
43161;BME280;40968;52.342;5.528;2024-01-27T12:26:59;103544.31;;;7.60;71.02
43161;BME280;40968;52.342;5.528;2024-01-27T12:29:25;103540.63;;;7.68;70.30
43161;BME280;40968;52.342;5.528;2024-01-27T12:31:54;103546.75;;;7.73;69.54
43161;BME280;40968;52.342;5.528;2024-01-27T12:34:21;103419.03;;;7.06;68.92
43161;BME280;40968;52.342;5.528;2024-01-27T12:36:47;103534.78;;;7.92;68.90
43161;BME280;40968;52.342;5.528;2024-01-27T12:39:14;103430.94;;;7.35;68.04
43161;BME280;40968;52.342;5.528;2024-01-27T12:41:42;103489.88;;;7.69;66.71
43161;BME280;40968;52.342;5.528;2024-01-27T12:44:08;103479.56;;;7.51;67.26
43161;BME280;40968;52.342;5.528;2024-01-27T12:46:35;103535.22;;;7.71;66.45
43161;BME280;40968;52.342;5.528;2024-01-27T12:49:02;103549.75;;;7.54;65.91
43161;BME280;40968;52.342;5.528;2024-01-27T12:51:29;103458.34;;;6.94;65.97
43161;BME280;40968;52.342;5.528;2024-01-27T12:53:56;103490.13;;;7.07;66.46
43161;BME280;40968;52.342;5.528;2024-01-27T12:56:23;103539.56;;;7.26;66.91
43161;BME280;40968;52.342;5.528;2024-01-27T12:58:52;103483.41;;;6.84;66.82